sensor_id;sensor_type;location;lat;lon;timestamp;P1;durP1;ratioP1;P2;durP2;ratioP2
12480;SDS011;6305;48.398;11.762;2024-01-10T00:00:39;44.77;;;25.83;;
12480;SDS011;6305;48.398;11.762;2024-01-10T00:03:06;46.43;;;26.40;;
12480;SDS011;6305;48.398;11.762;2024-01-10T00:05:33;44.93;;;25.13;;
12480;SDS011;6305;48.398;11.762;2024-01-10T00:08:00;46.97;;;24.80;;
12480;SDS011;6305;48.398;11.762;2024-01-10T00:10:27;46.73;;;25.73;;
12480;SDS011;6305;48.398;11.762;2024-01-10T00:12:55;44.60;;;27.20;;
12480;SDS011;6305;48.398;11.762;2024-01-10T00:15:22;51.67;;;27.20;;
12480;SDS011;6305;48.398;11.762;2024-01-10T00:17:49;50.03;;;25.97;;
12480;SDS011;6305;48.398;11.762;2024-01-10T00:20:16;50.40;;;27.33;;
12480;SDS011;6305;48.398;11.762;2024-01-10T00:22:43;47.33;;;26.50;;
12480;SDS011;6305;48.398;11.762;2024-01-10T00:25:10;47.37;;;25.03;;
12480;SDS011;6305;48.398;11.762;2024-01-10T00:27:38;46.93;;;25.33;;
12480;SDS011;6305;48.398;11.762;2024-01-10T00:30:07;49.10;;;27.20;;
12480;SDS011;6305;48.398;11.762;2024-01-10T00:32:34;45.27;;;28.10;;
12480;SDS011;6305;48.398;11.762;2024-01-10T00:35:01;47.20;;;26.77;;
12480;SDS011;6305;48.398;11.762;2024-01-10T00:37:29;52.43;;;31.17;;
12480;SDS011;6305;48.398;11.762;2024-01-10T00:39:56;56.50;;;28.63;;
12480;SDS011;6305;48.398;11.762;2024-01-10T00:42:23;52.03;;;29.17;;
12480;SDS011;6305;48.398;11.762;2024-01-10T00:44:50;54.87;;;30.27;;
12480;SDS011;6305;48.398;11.762;2024-01-10T00:47:18;52.13;;;29.73;;
12480;SDS011;6305;48.398;11.762;2024-01-10T00:49:45;52.80;;;29.63;;
12480;SDS011;6305;48.398;11.762;2024-01-10T00:52:12;50.13;;;28.47;;
12480;SDS011;6305;48.398;11.762;2024-01-10T00:54:40;53.83;;;28.47;;
12480;SDS011;6305;48.398;11.762;2024-01-10T00:57:07;54.93;;;29.30;;
12480;SDS011;6305;48.398;11.762;2024-01-10T00:59:34;50.77;;;28.90;;
12480;SDS011;6305;48.398;11.762;2024-01-10T01:02:01;48.93;;;28.10;;
12480;SDS011;6305;48.398;11.762;2024-01-10T01:04:29;53.77;;;29.53;;
12480;SDS011;6305;48.398;11.762;2024-01-10T01:06:56;55.43;;;29.67;;
12480;SDS011;6305;48.398;11.762;2024-01-10T01:09:23;56.37;;;30.83;;
12480;SDS011;6305;48.398;11.762;2024-01-10T01:11:51;58.40;;;32.20;;
12480;SDS011;6305;48.398;11.762;2024-01-10T01:14:18;52.17;;;28.70;;
12480;SDS011;6305;48.398;11.762;2024-01-10T01:16:46;59.03;;;30.67;;
12480;SDS011;6305;48.398;11.762;2024-01-10T01:19:13;59.80;;;33.00;;
12480;SDS011;6305;48.398;11.762;2024-01-10T01:21:41;54.17;;;30.83;;
12480;SDS011;6305;48.398;11.762;2024-01-10T01:24:09;55.63;;;32.97;;
12480;SDS011;6305;48.398;11.762;2024-01-10T01:26:36;54.90;;;30.03;;
12480;SDS011;6305;48.398;11.762;2024-01-10T01:29:03;54.53;;;30.23;;
12480;SDS011;6305;48.398;11.762;2024-01-10T01:31:31;57.83;;;30.67;;
12480;SDS011;6305;48.398;11.762;2024-01-10T01:33:58;54.93;;;30.93;;
12480;SDS011;6305;48.398;11.762;2024-01-10T01:36:25;56.20;;;30.07;;
12480;SDS011;6305;48.398;11.762;2024-01-10T01:38:53;57.80;;;33.77;;
12480;SDS011;6305;48.398;11.762;2024-01-10T01:41:20;62.57;;;32.73;;
12480;SDS011;6305;48.398;11.762;2024-01-10T01:43:47;60.57;;;31.87;;
12480;SDS011;6305;48.398;11.762;2024-01-10T01:46:14;62.57;;;29.53;;
12480;SDS011;6305;48.398;11.762;2024-01-10T01:48:42;58.97;;;32.03;;
12480;SDS011;6305;48.398;11.762;2024-01-10T01:51:09;65.93;;;36.47;;
12480;SDS011;6305;48.398;11.762;2024-01-10T01:53:39;71.40;;;33.60;;
12480;SDS011;6305;48.398;11.762;2024-01-10T01:56:08;60.83;;;33.13;;
12480;SDS011;6305;48.398;11.762;2024-01-10T01:58:36;64.93;;;34.53;;
12480;SDS011;6305;48.398;11.762;2024-01-10T02:01:03;68.27;;;35.70;;
12480;SDS011;6305;48.398;11.762;2024-01-10T02:03:30;68.43;;;34.37;;
12480;SDS011;6305;48.398;11.762;2024-01-10T02:05:58;70.43;;;35.03;;
12480;SDS011;6305;48.398;11.762;2024-01-10T02:08:28;76.63;;;40.00;;
12480;SDS011;6305;48.398;11.762;2024-01-10T02:10:56;82.47;;;41.20;;
12480;SDS011;6305;48.398;11.762;2024-01-10T02:13:24;80.13;;;39.87;;
12480;SDS011;6305;48.398;11.762;2024-01-10T02:15:52;73.10;;;35.37;;
12480;SDS011;6305;48.398;11.762;2024-01-10T02:18:19;68.37;;;34.80;;
12480;SDS011;6305;48.398;11.762;2024-01-10T02:20:47;63.23;;;30.20;;
12480;SDS011;6305;48.398;11.762;2024-01-10T02:23:14;64.17;;;31.53;;
12480;SDS011;6305;48.398;11.762;2024-01-10T02:25:42;65.20;;;31.37;;
12480;SDS011;6305;48.398;11.762;2024-01-10T02:28:09;60.40;;;32.13;;
12480;SDS011;6305;48.398;11.762;2024-01-10T02:30:37;64.17;;;31.97;;
12480;SDS011;6305;48.398;11.762;2024-01-10T02:33:04;62.10;;;32.90;;
12480;SDS011;6305;48.398;11.762;2024-01-10T02:35:31;62.63;;;32.10;;
12480;SDS011;6305;48.398;11.762;2024-01-10T02:37:58;63.40;;;32.37;;
12480;SDS011;6305;48.398;11.762;2024-01-10T02:40:26;67.70;;;32.63;;
12480;SDS011;6305;48.398;11.762;2024-01-10T02:42:54;64.70;;;30.83;;
12480;SDS011;6305;48.398;11.762;2024-01-10T02:45:21;71.63;;;34.83;;
12480;SDS011;6305;48.398;11.762;2024-01-10T02:47:48;68.60;;;32.47;;
12480;SDS011;6305;48.398;11.762;2024-01-10T02:50:15;68.77;;;32.07;;
12480;SDS011;6305;48.398;11.762;2024-01-10T02:52:42;72.00;;;34.03;;
12480;SDS011;6305;48.398;11.762;2024-01-10T02:55:09;72.10;;;30.90;;
12480;SDS011;6305;48.398;11.762;2024-01-10T02:57:36;74.23;;;33.30;;
12480;SDS011;6305;48.398;11.762;2024-01-10T03:00:05;80.33;;;35.63;;
12480;SDS011;6305;48.398;11.762;2024-01-10T03:02:33;78.20;;;31.40;;
12480;SDS011;6305;48.398;11.762;2024-01-10T03:05:00;77.40;;;34.10;;
12480;SDS011;6305;48.398;11.762;2024-01-10T03:07:27;75.53;;;35.17;;
12480;SDS011;6305;48.398;11.762;2024-01-10T03:09:54;72.57;;;31.77;;
12480;SDS011;6305;48.398;11.762;2024-01-10T03:12:21;70.77;;;33.83;;
12480;SDS011;6305;48.398;11.762;2024-01-10T03:14:48;74.07;;;31.03;;
12480;SDS011;6305;48.398;11.762;2024-01-10T03:17:16;78.57;;;35.63;;
12480;SDS011;6305;48.398;11.762;2024-01-10T03:19:43;75.80;;;36.53;;
12480;SDS011;6305;48.398;11.762;2024-01-10T03:22:10;75.57;;;34.23;;
12480;SDS011;6305;48.398;11.762;2024-01-10T03:24:38;81.37;;;39.13;;
12480;SDS011;6305;48.398;11.762;2024-01-10T03:27:05;76.00;;;31.67;;
12480;SDS011;6305;48.398;11.762;2024-01-10T03:29:32;80.30;;;36.83;;
12480;SDS011;6305;48.398;11.762;2024-01-10T03:32:00;75.73;;;32.43;;
12480;SDS011;6305;48.398;11.762;2024-01-10T03:34:28;79.90;;;34.60;;
12480;SDS011;6305;48.398;11.762;2024-01-10T03:36:55;81.07;;;35.53;;
12480;SDS011;6305;48.398;11.762;2024-01-10T03:39:22;88.30;;;36.43;;
12480;SDS011;6305;48.398;11.762;2024-01-10T03:41:49;86.43;;;35.47;;
12480;SDS011;6305;48.398;11.762;2024-01-10T03:44:16;84.63;;;36.20;;
12480;SDS011;6305;48.398;11.762;2024-01-10T03:46:43;84.33;;;32.83;;
12480;SDS011;6305;48.398;11.762;2024-01-10T03:49:10;85.97;;;35.77;;
12480;SDS011;6305;48.398;11.762;2024-01-10T03:51:38;89.60;;;35.10;;
12480;SDS011;6305;48.398;11.762;2024-01-10T03:54:07;96.07;;;38.87;;
12480;SDS011;6305;48.398;11.762;2024-01-10T03:56:34;89.47;;;35.50;;
12480;SDS011;6305;48.398;11.762;2024-01-10T03:59:01;104.27;;;40.13;;
12480;SDS011;6305;48.398;11.762;2024-01-10T04:01:28;96.00;;;39.20;;
12480;SDS011;6305;48.398;11.762;2024-01-10T04:03:55;100.87;;;42.60;;
12480;SDS011;6305;48.398;11.762;2024-01-10T04:06:22;114.40;;;44.07;;
12480;SDS011;6305;48.398;11.762;2024-01-10T04:08:50;98.90;;;40.80;;
12480;SDS011;6305;48.398;11.762;2024-01-10T04:11:17;103.03;;;42.73;;
12480;SDS011;6305;48.398;11.762;2024-01-10T04:13:44;109.63;;;42.67;;
12480;SDS011;6305;48.398;11.762;2024-01-10T04:16:11;114.23;;;44.70;;
12480;SDS011;6305;48.398;11.762;2024-01-10T04:18:39;113.83;;;47.03;;
12480;SDS011;6305;48.398;11.762;2024-01-10T04:21:06;113.40;;;47.70;;
12480;SDS011;6305;48.398;11.762;2024-01-10T04:23:33;109.00;;;45.93;;
12480;SDS011;6305;48.398;11.762;2024-01-10T04:26:02;113.13;;;47.07;;
12480;SDS011;6305;48.398;11.762;2024-01-10T04:28:30;112.40;;;43.27;;
12480;SDS011;6305;48.398;11.762;2024-01-10T04:30:57;116.73;;;45.33;;
12480;SDS011;6305;48.398;11.762;2024-01-10T04:33:24;113.63;;;45.63;;
12480;SDS011;6305;48.398;11.762;2024-01-10T04:35:51;118.20;;;48.60;;
12480;SDS011;6305;48.398;11.762;2024-01-10T04:38:18;122.50;;;51.20;;
12480;SDS011;6305;48.398;11.762;2024-01-10T04:40:45;119.40;;;46.77;;
12480;SDS011;6305;48.398;11.762;2024-01-10T04:43:13;122.73;;;47.07;;
12480;SDS011;6305;48.398;11.762;2024-01-10T04:45:40;116.10;;;47.83;;
12480;SDS011;6305;48.398;11.762;2024-01-10T04:48:07;116.93;;;45.87;;
12480;SDS011;6305;48.398;11.762;2024-01-10T04:50:34;117.23;;;48.90;;
12480;SDS011;6305;48.398;11.762;2024-01-10T04:53:01;109.93;;;46.43;;
12480;SDS011;6305;48.398;11.762;2024-01-10T04:55:28;109.67;;;46.83;;
12480;SDS011;6305;48.398;11.762;2024-01-10T04:57:56;112.40;;;47.20;;
12480;SDS011;6305;48.398;11.762;2024-01-10T05:00:24;107.77;;;48.00;;
12480;SDS011;6305;48.398;11.762;2024-01-10T05:02:51;115.27;;;46.53;;
12480;SDS011;6305;48.398;11.762;2024-01-10T05:05:18;108.03;;;49.60;;
12480;SDS011;6305;48.398;11.762;2024-01-10T05:07:48;110.27;;;48.77;;
12480;SDS011;6305;48.398;11.762;2024-01-10T05:10:15;110.73;;;46.77;;
12480;SDS011;6305;48.398;11.762;2024-01-10T05:12:42;105.03;;;42.73;;
12480;SDS011;6305;48.398;11.762;2024-01-10T05:15:09;94.17;;;43.07;;
12480;SDS011;6305;48.398;11.762;2024-01-10T05:17:38;100.27;;;45.20;;
12480;SDS011;6305;48.398;11.762;2024-01-10T05:20:06;95.37;;;43.77;;
12480;SDS011;6305;48.398;11.762;2024-01-10T05:22:34;102.53;;;46.23;;
12480;SDS011;6305;48.398;11.762;2024-01-10T05:25:02;94.70;;;42.07;;
12480;SDS011;6305;48.398;11.762;2024-01-10T05:27:30;96.07;;;42.33;;
12480;SDS011;6305;48.398;11.762;2024-01-10T05:29:57;99.97;;;47.87;;
12480;SDS011;6305;48.398;11.762;2024-01-10T05:32:24;116.53;;;53.80;;
12480;SDS011;6305;48.398;11.762;2024-01-10T05:34:53;90.20;;;43.43;;
12480;SDS011;6305;48.398;11.762;2024-01-10T05:37:20;93.50;;;44.83;;
12480;SDS011;6305;48.398;11.762;2024-01-10T05:39:47;81.13;;;39.37;;
12480;SDS011;6305;48.398;11.762;2024-01-10T05:42:15;82.17;;;38.67;;
12480;SDS011;6305;48.398;11.762;2024-01-10T05:44:42;82.77;;;40.10;;
12480;SDS011;6305;48.398;11.762;2024-01-10T05:47:09;77.63;;;38.20;;
12480;SDS011;6305;48.398;11.762;2024-01-10T05:49:36;84.13;;;37.73;;
12480;SDS011;6305;48.398;11.762;2024-01-10T05:52:05;75.87;;;37.37;;
12480;SDS011;6305;48.398;11.762;2024-01-10T05:54:32;79.23;;;38.10;;
12480;SDS011;6305;48.398;11.762;2024-01-10T05:56:59;78.43;;;36.67;;
12480;SDS011;6305;48.398;11.762;2024-01-10T05:59:27;76.50;;;35.60;;
12480;SDS011;6305;48.398;11.762;2024-01-10T06:01:56;77.97;;;34.37;;
12480;SDS011;6305;48.398;11.762;2024-01-10T06:04:23;79.57;;;36.07;;
12480;SDS011;6305;48.398;11.762;2024-01-10T06:06:51;79.00;;;36.57;;
12480;SDS011;6305;48.398;11.762;2024-01-10T06:09:19;75.43;;;34.60;;
12480;SDS011;6305;48.398;11.762;2024-01-10T06:11:47;78.10;;;35.10;;
12480;SDS011;6305;48.398;11.762;2024-01-10T06:14:14;74.63;;;33.43;;
12480;SDS011;6305;48.398;11.762;2024-01-10T06:16:41;75.37;;;34.47;;
12480;SDS011;6305;48.398;11.762;2024-01-10T06:19:09;72.87;;;33.63;;
12480;SDS011;6305;48.398;11.762;2024-01-10T06:21:36;68.60;;;32.03;;
12480;SDS011;6305;48.398;11.762;2024-01-10T06:24:04;75.67;;;33.97;;
12480;SDS011;6305;48.398;11.762;2024-01-10T06:26:33;68.63;;;33.83;;
12480;SDS011;6305;48.398;11.762;2024-01-10T06:28:59;69.13;;;32.43;;
12480;SDS011;6305;48.398;11.762;2024-01-10T06:31:26;69.60;;;32.37;;
12480;SDS011;6305;48.398;11.762;2024-01-10T06:33:53;79.30;;;38.37;;
12480;SDS011;6305;48.398;11.762;2024-01-10T06:36:21;69.73;;;32.63;;
12480;SDS011;6305;48.398;11.762;2024-01-10T06:38:48;75.83;;;36.70;;
12480;SDS011;6305;48.398;11.762;2024-01-10T06:41:15;83.70;;;41.87;;
12480;SDS011;6305;48.398;11.762;2024-01-10T06:43:43;80.60;;;37.90;;
12480;SDS011;6305;48.398;11.762;2024-01-10T06:46:10;74.30;;;35.43;;
12480;SDS011;6305;48.398;11.762;2024-01-10T06:48:37;72.93;;;33.60;;
12480;SDS011;6305;48.398;11.762;2024-01-10T06:51:07;71.87;;;33.27;;
12480;SDS011;6305;48.398;11.762;2024-01-10T06:53:36;77.20;;;34.50;;
12480;SDS011;6305;48.398;11.762;2024-01-10T06:56:04;70.87;;;33.20;;
12480;SDS011;6305;48.398;11.762;2024-01-10T06:58:32;77.23;;;37.13;;
12480;SDS011;6305;48.398;11.762;2024-01-10T07:01:00;71.37;;;34.33;;
12480;SDS011;6305;48.398;11.762;2024-01-10T07:03:30;72.37;;;33.47;;
12480;SDS011;6305;48.398;11.762;2024-01-10T07:05:57;67.83;;;32.93;;
12480;SDS011;6305;48.398;11.762;2024-01-10T07:08:25;74.90;;;32.80;;
12480;SDS011;6305;48.398;11.762;2024-01-10T07:10:52;69.70;;;32.00;;
12480;SDS011;6305;48.398;11.762;2024-01-10T07:13:21;72.57;;;32.23;;
12480;SDS011;6305;48.398;11.762;2024-01-10T07:15:48;70.43;;;32.13;;
12480;SDS011;6305;48.398;11.762;2024-01-10T07:18:19;67.43;;;31.20;;
12480;SDS011;6305;48.398;11.762;2024-01-10T07:20:46;63.07;;;30.13;;
12480;SDS011;6305;48.398;11.762;2024-01-10T07:23:13;67.10;;;30.43;;
12480;SDS011;6305;48.398;11.762;2024-01-10T07:25:40;73.80;;;34.53;;
12480;SDS011;6305;48.398;11.762;2024-01-10T07:28:07;71.60;;;34.07;;
12480;SDS011;6305;48.398;11.762;2024-01-10T07:30:34;73.27;;;32.67;;
12480;SDS011;6305;48.398;11.762;2024-01-10T07:33:01;65.40;;;31.47;;
12480;SDS011;6305;48.398;11.762;2024-01-10T07:35:29;66.60;;;31.53;;
12480;SDS011;6305;48.398;11.762;2024-01-10T07:37:56;66.07;;;31.80;;
12480;SDS011;6305;48.398;11.762;2024-01-10T07:40:23;61.90;;;29.70;;
12480;SDS011;6305;48.398;11.762;2024-01-10T07:42:50;68.60;;;30.37;;
12480;SDS011;6305;48.398;11.762;2024-01-10T07:45:17;69.83;;;32.43;;
12480;SDS011;6305;48.398;11.762;2024-01-10T07:47:44;75.90;;;34.73;;
12480;SDS011;6305;48.398;11.762;2024-01-10T07:50:11;72.83;;;33.13;;
12480;SDS011;6305;48.398;11.762;2024-01-10T07:52:41;71.13;;;33.97;;
12480;SDS011;6305;48.398;11.762;2024-01-10T07:55:09;71.33;;;31.80;;
12480;SDS011;6305;48.398;11.762;2024-01-10T07:57:36;70.40;;;33.10;;
12480;SDS011;6305;48.398;11.762;2024-01-10T08:00:04;73.23;;;32.30;;
12480;SDS011;6305;48.398;11.762;2024-01-10T08:02:35;68.90;;;31.57;;
12480;SDS011;6305;48.398;11.762;2024-01-10T08:05:02;75.73;;;33.43;;
12480;SDS011;6305;48.398;11.762;2024-01-10T08:07:33;73.53;;;33.97;;
12480;SDS011;6305;48.398;11.762;2024-01-10T08:10:04;70.10;;;33.40;;
12480;SDS011;6305;48.398;11.762;2024-01-10T08:12:32;70.03;;;31.97;;
12480;SDS011;6305;48.398;11.762;2024-01-10T08:14:59;70.60;;;33.47;;
12480;SDS011;6305;48.398;11.762;2024-01-10T08:17:27;68.73;;;31.93;;
12480;SDS011;6305;48.398;11.762;2024-01-10T08:19:54;74.43;;;32.67;;
12480;SDS011;6305;48.398;11.762;2024-01-10T08:22:22;72.67;;;32.40;;
12480;SDS011;6305;48.398;11.762;2024-01-10T08:24:49;64.53;;;30.13;;
12480;SDS011;6305;48.398;11.762;2024-01-10T08:27:17;70.20;;;33.40;;
12480;SDS011;6305;48.398;11.762;2024-01-10T08:29:45;73.33;;;32.20;;
12480;SDS011;6305;48.398;11.762;2024-01-10T08:32:12;71.43;;;30.93;;
12480;SDS011;6305;48.398;11.762;2024-01-10T08:34:40;69.67;;;31.27;;
12480;SDS011;6305;48.398;11.762;2024-01-10T08:37:07;73.87;;;31.53;;
12480;SDS011;6305;48.398;11.762;2024-01-10T08:39:34;69.50;;;30.47;;
12480;SDS011;6305;48.398;11.762;2024-01-10T08:42:01;64.93;;;29.90;;
12480;SDS011;6305;48.398;11.762;2024-01-10T08:44:29;67.63;;;29.47;;
12480;SDS011;6305;48.398;11.762;2024-01-10T08:46:56;71.07;;;31.13;;
12480;SDS011;6305;48.398;11.762;2024-01-10T08:49:23;71.60;;;31.93;;
12480;SDS011;6305;48.398;11.762;2024-01-10T08:51:51;98.83;;;40.47;;
12480;SDS011;6305;48.398;11.762;2024-01-10T08:54:19;87.40;;;36.77;;
12480;SDS011;6305;48.398;11.762;2024-01-10T08:56:47;78.73;;;31.97;;
12480;SDS011;6305;48.398;11.762;2024-01-10T08:59:14;69.33;;;31.13;;
12480;SDS011;6305;48.398;11.762;2024-01-10T09:01:43;76.87;;;32.00;;
12480;SDS011;6305;48.398;11.762;2024-01-10T09:04:10;74.97;;;30.83;;
12480;SDS011;6305;48.398;11.762;2024-01-10T09:06:36;66.17;;;28.77;;
12480;SDS011;6305;48.398;11.762;2024-01-10T09:09:03;73.83;;;30.57;;
12480;SDS011;6305;48.398;11.762;2024-01-10T09:11:31;71.23;;;30.83;;
12480;SDS011;6305;48.398;11.762;2024-01-10T09:13:59;67.57;;;29.33;;
12480;SDS011;6305;48.398;11.762;2024-01-10T09:16:26;65.07;;;28.30;;
12480;SDS011;6305;48.398;11.762;2024-01-10T09:18:54;65.43;;;29.53;;
12480;SDS011;6305;48.398;11.762;2024-01-10T09:21:22;64.67;;;29.53;;
12480;SDS011;6305;48.398;11.762;2024-01-10T09:23:49;70.70;;;32.53;;
12480;SDS011;6305;48.398;11.762;2024-01-10T09:26:16;65.83;;;29.63;;
12480;SDS011;6305;48.398;11.762;2024-01-10T09:28:43;63.10;;;28.67;;
12480;SDS011;6305;48.398;11.762;2024-01-10T09:31:10;65.30;;;28.63;;
12480;SDS011;6305;48.398;11.762;2024-01-10T09:33:37;68.20;;;29.53;;
12480;SDS011;6305;48.398;11.762;2024-01-10T09:36:06;66.57;;;27.50;;
12480;SDS011;6305;48.398;11.762;2024-01-10T09:38:34;66.77;;;29.43;;
12480;SDS011;6305;48.398;11.762;2024-01-10T09:41:02;66.47;;;29.87;;
12480;SDS011;6305;48.398;11.762;2024-01-10T09:43:30;68.27;;;28.57;;
12480;SDS011;6305;48.398;11.762;2024-01-10T09:45:58;66.10;;;27.77;;
12480;SDS011;6305;48.398;11.762;2024-01-10T09:48:27;68.20;;;28.27;;
12480;SDS011;6305;48.398;11.762;2024-01-10T09:50:54;62.67;;;26.67;;
12480;SDS011;6305;48.398;11.762;2024-01-10T09:53:24;62.27;;;26.37;;
12480;SDS011;6305;48.398;11.762;2024-01-10T09:55:52;62.67;;;27.63;;
12480;SDS011;6305;48.398;11.762;2024-01-10T09:58:22;60.07;;;26.17;;
12480;SDS011;6305;48.398;11.762;2024-01-10T10:00:51;61.07;;;26.97;;
12480;SDS011;6305;48.398;11.762;2024-01-10T10:03:18;55.47;;;25.60;;
12480;SDS011;6305;48.398;11.762;2024-01-10T10:05:45;68.90;;;30.43;;
12480;SDS011;6305;48.398;11.762;2024-01-10T10:08:13;59.40;;;27.03;;
12480;SDS011;6305;48.398;11.762;2024-01-10T10:10:49;60.87;;;26.37;;
12480;SDS011;6305;48.398;11.762;2024-01-10T10:13:24;62.70;;;26.47;;
12480;SDS011;6305;48.398;11.762;2024-01-10T10:15:58;61.60;;;25.87;;
12480;SDS011;6305;48.398;11.762;2024-01-10T10:18:26;64.87;;;26.47;;
12480;SDS011;6305;48.398;11.762;2024-01-10T10:21:06;61.07;;;26.77;;
12480;SDS011;6305;48.398;11.762;2024-01-10T10:23:35;66.13;;;28.40;;
12480;SDS011;6305;48.398;11.762;2024-01-10T10:26:11;67.37;;;28.53;;
12480;SDS011;6305;48.398;11.762;2024-01-10T10:28:40;56.70;;;25.27;;
12480;SDS011;6305;48.398;11.762;2024-01-10T10:31:07;60.63;;;25.60;;
12480;SDS011;6305;48.398;11.762;2024-01-10T10:33:34;54.30;;;24.20;;
12480;SDS011;6305;48.398;11.762;2024-01-10T10:36:02;59.17;;;24.97;;
12480;SDS011;6305;48.398;11.762;2024-01-10T10:38:30;55.80;;;23.53;;
12480;SDS011;6305;48.398;11.762;2024-01-10T10:40:57;53.63;;;23.13;;
12480;SDS011;6305;48.398;11.762;2024-01-10T10:43:27;55.00;;;24.13;;
12480;SDS011;6305;48.398;11.762;2024-01-10T10:46:00;52.27;;;24.53;;
12480;SDS011;6305;48.398;11.762;2024-01-10T10:48:28;59.03;;;23.50;;
12480;SDS011;6305;48.398;11.762;2024-01-10T10:51:03;57.17;;;23.93;;
12480;SDS011;6305;48.398;11.762;2024-01-10T10:53:33;53.80;;;22.53;;
12480;SDS011;6305;48.398;11.762;2024-01-10T10:56:02;60.00;;;25.23;;
12480;SDS011;6305;48.398;11.762;2024-01-10T10:58:36;55.97;;;23.60;;
12480;SDS011;6305;48.398;11.762;2024-01-10T11:01:06;58.70;;;24.23;;
12480;SDS011;6305;48.398;11.762;2024-01-10T11:03:34;58.47;;;24.33;;
12480;SDS011;6305;48.398;11.762;2024-01-10T11:06:03;52.83;;;22.90;;
12480;SDS011;6305;48.398;11.762;2024-01-10T11:08:32;60.30;;;25.63;;
12480;SDS011;6305;48.398;11.762;2024-01-10T11:11:02;60.27;;;24.23;;
12480;SDS011;6305;48.398;11.762;2024-01-10T11:13:48;58.77;;;24.10;;
12480;SDS011;6305;48.398;11.762;2024-01-10T11:16:33;58.30;;;24.20;;
12480;SDS011;6305;48.398;11.762;2024-01-10T11:19:18;62.07;;;24.27;;
12480;SDS011;6305;48.398;11.762;2024-01-10T11:22:14;62.70;;;26.10;;
12480;SDS011;6305;48.398;11.762;2024-01-10T11:24:50;59.13;;;24.73;;
12480;SDS011;6305;48.398;11.762;2024-01-10T11:27:18;54.93;;;22.50;;
12480;SDS011;6305;48.398;11.762;2024-01-10T11:29:47;52.57;;;22.07;;
12480;SDS011;6305;48.398;11.762;2024-01-10T11:32:15;54.43;;;22.37;;
12480;SDS011;6305;48.398;11.762;2024-01-10T11:34:49;50.07;;;22.90;;
12480;SDS011;6305;48.398;11.762;2024-01-10T11:37:20;54.87;;;22.57;;
12480;SDS011;6305;48.398;11.762;2024-01-10T11:39:50;54.53;;;24.47;;
12480;SDS011;6305;48.398;11.762;2024-01-10T11:42:21;60.20;;;25.00;;
12480;SDS011;6305;48.398;11.762;2024-01-10T11:44:51;55.57;;;23.80;;
12480;SDS011;6305;48.398;11.762;2024-01-10T11:47:19;53.90;;;23.17;;
12480;SDS011;6305;48.398;11.762;2024-01-10T11:49:56;55.23;;;23.83;;
12480;SDS011;6305;48.398;11.762;2024-01-10T11:52:25;57.40;;;23.43;;
12480;SDS011;6305;48.398;11.762;2024-01-10T11:54:58;56.13;;;24.07;;
12480;SDS011;6305;48.398;11.762;2024-01-10T11:57:25;58.73;;;24.43;;
12480;SDS011;6305;48.398;11.762;2024-01-10T11:59:55;56.80;;;23.43;;
12480;SDS011;6305;48.398;11.762;2024-01-10T12:02:25;52.13;;;21.60;;
12480;SDS011;6305;48.398;11.762;2024-01-10T12:04:53;57.47;;;22.03;;
12480;SDS011;6305;48.398;11.762;2024-01-10T12:07:20;53.00;;;22.07;;
12480;SDS011;6305;48.398;11.762;2024-01-10T12:09:49;58.87;;;22.37;;
12480;SDS011;6305;48.398;11.762;2024-01-10T12:12:16;57.10;;;23.50;;
12480;SDS011;6305;48.398;11.762;2024-01-10T12:14:43;57.13;;;22.87;;
12480;SDS011;6305;48.398;11.762;2024-01-10T12:17:12;54.17;;;22.67;;
12480;SDS011;6305;48.398;11.762;2024-01-10T12:19:39;53.10;;;21.70;;
12480;SDS011;6305;48.398;11.762;2024-01-10T12:22:10;52.93;;;22.50;;
12480;SDS011;6305;48.398;11.762;2024-01-10T12:24:42;51.70;;;22.27;;
12480;SDS011;6305;48.398;11.762;2024-01-10T12:27:11;56.20;;;22.00;;
12480;SDS011;6305;48.398;11.762;2024-01-10T12:29:38;51.87;;;21.77;;
12480;SDS011;6305;48.398;11.762;2024-01-10T12:32:05;56.77;;;22.83;;
12480;SDS011;6305;48.398;11.762;2024-01-10T12:34:38;59.17;;;25.30;;
12480;SDS011;6305;48.398;11.762;2024-01-10T12:37:05;53.50;;;22.47;;
12480;SDS011;6305;48.398;11.762;2024-01-10T12:39:32;54.13;;;22.27;;
12480;SDS011;6305;48.398;11.762;2024-01-10T12:41:59;52.00;;;22.60;;
12480;SDS011;6305;48.398;11.762;2024-01-10T12:44:28;50.43;;;21.70;;
12480;SDS011;6305;48.398;11.762;2024-01-10T12:46:57;55.17;;;22.73;;
12480;SDS011;6305;48.398;11.762;2024-01-10T12:49:25;54.10;;;22.13;;
12480;SDS011;6305;48.398;11.762;2024-01-10T12:51:53;60.97;;;23.43;;
12480;SDS011;6305;48.398;11.762;2024-01-10T12:54:20;57.63;;;22.90;;
12480;SDS011;6305;48.398;11.762;2024-01-10T12:56:47;52.40;;;22.07;;
12480;SDS011;6305;48.398;11.762;2024-01-10T12:59:14;55.93;;;22.67;;
12480;SDS011;6305;48.398;11.762;2024-01-10T13:01:41;57.97;;;25.00;;
12480;SDS011;6305;48.398;11.762;2024-01-10T13:04:08;54.30;;;23.87;;
12480;SDS011;6305;48.398;11.762;2024-01-10T13:06:37;61.07;;;25.40;;
12480;SDS011;6305;48.398;11.762;2024-01-10T13:09:06;63.30;;;27.03;;
12480;SDS011;6305;48.398;11.762;2024-01-10T13:11:33;99.07;;;39.43;;
12480;SDS011;6305;48.398;11.762;2024-01-10T13:14:00;69.63;;;29.80;;
12480;SDS011;6305;48.398;11.762;2024-01-10T13:16:27;61.00;;;26.43;;
12480;SDS011;6305;48.398;11.762;2024-01-10T13:18:54;65.83;;;29.77;;
12480;SDS011;6305;48.398;11.762;2024-01-10T13:21:22;61.60;;;26.17;;
12480;SDS011;6305;48.398;11.762;2024-01-10T13:23:49;58.13;;;25.40;;
12480;SDS011;6305;48.398;11.762;2024-01-10T13:26:18;58.73;;;25.20;;
12480;SDS011;6305;48.398;11.762;2024-01-10T13:28:45;61.27;;;26.30;;
12480;SDS011;6305;48.398;11.762;2024-01-10T13:31:12;60.07;;;26.63;;
12480;SDS011;6305;48.398;11.762;2024-01-10T13:33:40;64.80;;;30.20;;
12480;SDS011;6305;48.398;11.762;2024-01-10T13:36:07;70.57;;;32.07;;
12480;SDS011;6305;48.398;11.762;2024-01-10T13:38:34;62.83;;;28.10;;
12480;SDS011;6305;48.398;11.762;2024-01-10T13:41:01;61.17;;;28.03;;
12480;SDS011;6305;48.398;11.762;2024-01-10T13:43:32;61.33;;;27.77;;
12480;SDS011;6305;48.398;11.762;2024-01-10T13:45:58;55.60;;;27.47;;
12480;SDS011;6305;48.398;11.762;2024-01-10T13:48:26;64.33;;;29.50;;
12480;SDS011;6305;48.398;11.762;2024-01-10T13:50:53;69.17;;;31.93;;
12480;SDS011;6305;48.398;11.762;2024-01-10T13:53:20;61.90;;;28.10;;
12480;SDS011;6305;48.398;11.762;2024-01-10T13:55:47;60.00;;;27.60;;
12480;SDS011;6305;48.398;11.762;2024-01-10T13:58:15;62.60;;;30.33;;
12480;SDS011;6305;48.398;11.762;2024-01-10T14:00:45;57.30;;;27.00;;
12480;SDS011;6305;48.398;11.762;2024-01-10T14:03:12;62.07;;;28.10;;
12480;SDS011;6305;48.398;11.762;2024-01-10T14:05:39;59.37;;;28.03;;
12480;SDS011;6305;48.398;11.762;2024-01-10T14:08:06;58.83;;;27.50;;
12480;SDS011;6305;48.398;11.762;2024-01-10T14:10:33;62.93;;;28.63;;
12480;SDS011;6305;48.398;11.762;2024-01-10T14:13:01;59.60;;;28.77;;
12480;SDS011;6305;48.398;11.762;2024-01-10T14:15:28;61.03;;;28.40;;
12480;SDS011;6305;48.398;11.762;2024-01-10T14:17:57;60.30;;;28.30;;
12480;SDS011;6305;48.398;11.762;2024-01-10T14:20:23;61.20;;;28.13;;
12480;SDS011;6305;48.398;11.762;2024-01-10T14:22:50;61.57;;;28.70;;
12480;SDS011;6305;48.398;11.762;2024-01-10T14:25:17;61.53;;;27.20;;